This is the latest recevied weather packets stored in our database for station/object E24CR-1. If no packets are shown the sender has not sent any weather packets the latest 10 day(s).
| Time | Temp. | Humidity | Pressure | Rain* | Wind** | Luminosity | Snow |
|---|---|---|---|---|---|---|---|
| 1777596551 | 26.67° C | 74% | 953 hPa | - | - | 0 W/m² | - |
| 1777595926 | 25.56° C | 77% | 953 hPa | - | - | 0 W/m² | - |
| 1777595301 | 25° C | 78% | 953 hPa | - | - | 0 W/m² | - |
| 1777594677 | 24.44° C | 81% | 953 hPa | - | - | 0 W/m² | - |
| 1777594052 | 24.44° C | 82% | 953 hPa | - | - | 0 W/m² | - |
| 1777593427 | 23.89° C | 81% | 953 hPa | - | - | 0 W/m² | - |
| 1777592802 | 23.33° C | 80% | 953 hPa | - | - | 0 W/m² | - |
| 1777592177 | 23.33° C | 76% | 952 hPa | - | - | 0 W/m² | - |
| 1777591549 | 23.89° C | 76% | 952 hPa | - | - | 0 W/m² | - |
| 1777590924 | 23.89° C | 75% | 952 hPa | - | - | 0 W/m² | - |
| 1777590300 | 23.89° C | 76% | 952 hPa | - | - | 0 W/m² | - |
| 1777589675 | 23.89° C | 77% | 952 hPa | - | - | 0 W/m² | - |
| 1777589049 | 23.89° C | 76% | 952 hPa | - | - | 0 W/m² | - |
| 1777588424 | 24.44° C | 76% | 952 hPa | - | - | 0 W/m² | - |
| 1777587799 | 23.89° C | 77% | 952 hPa | - | - | 0 W/m² | - |
| 1777587174 | 23.89° C | 78% | 952 hPa | - | - | 0 W/m² | - |
| 1777586549 | 23.89° C | 79% | 952 hPa | - | - | 0 W/m² | - |
| 1777585925 | 23.33° C | 86% | 952 hPa | - | - | 0 W/m² | - |
| 1777585300 | 23.33° C | 82% | 952 hPa | - | - | 0 W/m² | - |
| 1777584675 | 23.89° C | 79% | 952 hPa | - | - | 0 W/m² | - |
| 1777584050 | 24.44° C | 75% | 952 hPa | - | - | 0 W/m² | - |
| 1777583425 | 24.44° C | 74% | 951 hPa | - | - | 0 W/m² | - |
| 1777582799 | 24.44° C | 75% | 951 hPa | - | - | 0 W/m² | - |
| 1777582175 | 24.44° C | 74% | 951 hPa | - | - | 0 W/m² | - |
| 1777581550 | 24.44° C | 75% | 951 hPa | - | - | 0 W/m² | - |
* Rain since midnight (hover to see other rain measurements)
** Current wind speed in m/s (hover to see current wind gust speed)